Time;durP1;ratioP1;P1;durP2;ratioP2;P2;SDS_P1;SDS_P2;PMS_P1;PMS_P2;Temp;Humidity;BMP_temperature;BMP_pressure;BME280_temperature;BME280_humidity;BME280_pressure;Samples;Min_cycle;Max_cycle;Signal;HPM_P1;HPM_P2
2022/01/17 00:01:06;;;;;;;29.20;15.82;;;;;;;1.53;85.13;96978.41;4989707;28;20050;-49
2022/01/17 00:03:33;;;;;;;29.20;14.25;;;;;;;1.20;85.53;96968.63;4991479;28;20042;-46
2022/01/17 00:06:01;;;;;;;29.77;16.00;;;;;;;1.48;85.16;96973.81;4976938;28;20042;-48
2022/01/17 00:08:28;;;;;;;29.17;16.23;;;;;;;1.52;83.85;96961.56;4972226;28;20050;-47
2022/01/17 00:10:55;;;;;;;25.92;14.70;;;;;;;1.12;85.29;96964.53;4987265;28;20054;-47
2022/01/17 00:13:27;;;;;;;29.27;15.05;;;;;;;1.29;85.29;96967.16;4991142;28;20058;-48
2022/01/17 00:16:07;;;;;;;27.33;15.80;;;;;;;1.24;85.40;96973.25;4991007;28;20129;-52
2022/01/17 00:21:04;;;;;;;28.48;15.23;;;;;;;1.17;84.90;96957.44;4992040;28;20046;-46
2022/01/17 00:23:32;;;;;;;28.65;16.02;;;;;;;1.52;83.32;96956.25;4992215;28;20046;-45
2022/01/17 00:25:59;;;;;;;25.23;14.80;;;;;;;1.28;84.29;96968.22;4994711;28;20129;-46
2022/01/17 00:28:26;;;;;;;25.42;14.95;;;;;;;1.56;82.93;96957.38;4995390;28;20503;-45
2022/01/17 00:30:53;;;;;;;27.98;14.77;;;;;;;1.05;84.90;96961.25;4993015;28;20153;-48
2022/01/17 00:33:20;;;;;;;26.00;14.60;;;;;;;1.01;85.21;96960.94;4983005;28;20078;-44
2022/01/17 00:35:46;;;;;;;28.90;15.52;;;;;;;1.29;83.60;96967.16;4993468;28;20048;-51
2022/01/17 00:38:14;;;;;;;25.10;13.38;;;;;;;1.29;83.95;96973.28;4995110;28;20046;-45
2022/01/17 00:40:41;;;;;;;29.42;17.17;;;;;;;1.61;82.42;96968.09;4985906;28;20269;-45
2022/01/17 00:43:12;;;;;;;28.92;17.42;;;;;;;1.57;82.45;96964.31;4979817;28;20138;-45
2022/01/17 00:45:41;;;;;;;28.20;15.27;;;;;;;1.51;82.09;96983.97;4994604;28;20434;-49
2022/01/17 00:48:09;;;;;;;29.10;16.17;;;;;;;1.61;81.98;96972.63;4994642;28;20055;-47
2022/01/17 00:50:38;;;;;;;28.77;17.05;;;;;;;1.59;81.43;96967.56;4992458;28;20057;-49
2022/01/17 00:53:07;;;;;;;29.48;16.67;;;;;;;1.45;82.20;96970.81;4993883;28;20050;-45
2022/01/17 00:55:37;;;;;;;24.48;14.02;;;;;;;1.07;84.03;96975.13;4994409;28;20133;-45
2022/01/17 00:58:05;;;;;;;26.42;14.85;;;;;;;1.37;82.39;96970.22;4994977;28;20053;-50
2022/01/17 01:00:32;;;;;;;24.30;13.77;;;;;;;1.02;83.47;96983.88;4991636;28;20042;-49
2022/01/17 01:02:59;;;;;;;28.23;14.70;;;;;;;1.27;82.72;96979.91;4994413;28;20131;-45
2022/01/17 01:05:27;;;;;;;24.52;13.65;;;;;;;1.18;82.48;96990.22;4993479;28;20050;-47
2022/01/17 01:07:54;;;;;;;26.52;16.08;;;;;;;1.28;82.59;96973.56;4994707;28;20046;-49
2022/01/17 01:10:21;;;;;;;26.73;14.35;;;;;;;1.37;82.94;96985.41;4992304;28;20070;-47
2022/01/17 01:12:50;;;;;;;28.25;14.95;;;;;;;1.18;84.15;96976.91;4994717;28;20534;-49
2022/01/17 01:15:35;;;;;;;27.63;14.93;;;;;;;1.22;84.34;96986.00;4994544;28;20142;-49
2022/01/17 01:18:13;;;;;;;26.48;15.70;;;;;;;1.24;83.59;96985.78;4980972;28;20121;-46
2022/01/17 01:28:42;;;;;;;26.33;14.02;;;;;;;0.97;84.03;96977.66;4993972;28;20050;-45
2022/01/17 01:31:17;;;;;;;24.88;13.73;;;;;;;1.26;82.17;96987.13;4992308;28;20050;-50
2022/01/17 01:33:51;;;;;;;21.73;12.90;;;;;;;1.21;82.57;96987.06;4994496;28;20046;-47
2022/01/17 01:36:27;;;;;;;22.42;13.20;;;;;;;1.35;81.29;96995.50;4993467;28;20572;-46
2022/01/17 01:38:54;;;;;;;22.23;12.85;;;;;;;1.10;80.87;96988.75;4988663;28;20057;-49
2022/01/17 01:41:21;;;;;;;23.58;12.75;;;;;;;1.24;81.18;96983.09;4994402;28;20420;-48
2022/01/17 01:43:48;;;;;;;22.77;12.25;;;;;;;1.29;80.39;96980.50;4994287;28;20050;-46
2022/01/17 01:46:19;;;;;;;21.08;11.35;;;;;;;1.54;79.58;96980.00;4989135;28;20495;-47
2022/01/17 01:48:46;;;;;;;19.85;11.45;;;;;;;1.58;79.33;96963.25;4992576;28;20057;-46
2022/01/17 01:51:14;;;;;;;18.38;10.80;;;;;;;1.39;79.44;96967.28;4994213;28;20077;-49
2022/01/17 01:53:41;;;;;;;17.65;10.02;;;;;;;1.22;78.97;96938.03;4988980;28;20069;-50
2022/01/17 01:56:08;;;;;;;18.67;10.75;;;;;;;1.56;78.65;96949.38;4993030;28;20043;-47
2022/01/17 01:58:35;;;;;;;18.23;10.88;;;;;;;1.64;77.95;96951.59;4993806;28;20054;-49
2022/01/17 02:01:02;;;;;;;18.25;9.93;;;;;;;1.22;78.82;96935.34;4992726;28;20099;-47
2022/01/17 02:03:29;;;;;;;19.35;9.60;;;;;;;1.48;78.55;96941.00;4988390;28;20049;-48
2022/01/17 02:05:57;;;;;;;17.73;8.63;;;;;;;1.36;77.80;96947.25;4993181;28;20035;-46
2022/01/17 02:08:24;;;;;;;16.10;9.68;;;;;;;1.34;78.44;96951.25;4993885;28;20050;-46
2022/01/17 02:10:51;;;;;;;17.00;9.70;;;;;;;1.49;77.83;96948.72;4984497;28;20042;-46
2022/01/17 02:13:17;;;;;;;17.35;8.93;;;;;;;1.34;78.62;96944.03;4994126;28;20060;-51
2022/01/17 02:15:46;;;;;;;17.27;9.48;;;;;;;1.46;77.49;96938.56;4991955;28;20412;-49
2022/01/17 02:18:22;;;;;;;16.67;8.88;;;;;;;1.48;77.61;96933.78;4993135;28;20514;-51
2022/01/17 02:21:10;;;;;;;15.45;8.50;;;;;;;1.47;77.95;96936.72;4989370;28;20058;-52
2022/01/17 02:23:36;;;;;;;16.58;9.45;;;;;;;1.61;77.22;96938.75;4984808;28;20050;-52
2022/01/17 02:26:03;;;;;;;15.25;8.80;;;;;;;1.60;77.16;96937.16;4987414;28;20050;-49
2022/01/17 02:28:33;;;;;;;13.52;8.10;;;;;;;1.68;76.96;96930.53;4992944;28;20488;-49
2022/01/17 02:31:01;;;;;;;13.13;7.78;;;;;;;1.79;76.19;96939.47;4993016;28;20385;-48
2022/01/17 02:33:28;;;;;;;15.63;8.00;;;;;;;1.70;76.59;96939.13;4987480;28;20061;-50
2022/01/17 02:35:55;;;;;;;12.38;8.18;;;;;;;1.57;76.97;96940.31;4992162;28;20055;-52
2022/01/17 02:38:22;;;;;;;12.93;7.95;;;;;;;1.57;76.37;96937.63;4991555;28;20078;-52
2022/01/17 02:40:50;;;;;;;14.10;7.75;;;;;;;1.94;76.00;96931.63;4990771;28;20418;-50
2022/01/17 02:43:20;;;;;;;13.48;7.50;;;;;;;1.81;75.94;96937.34;4987541;28;20062;-48
2022/01/17 02:48:21;;;;;;;13.25;7.55;;;;;;;1.81;75.32;96940.03;4992403;28;20034;-51
2022/01/17 02:50:48;;;;;;;13.25;7.40;;;;;;;1.85;76.13;96939.28;4990791;28;20066;-53
2022/01/17 02:53:15;;;;;;;11.60;7.00;;;;;;;1.76;75.86;96934.66;4984407;28;20046;-46
2022/01/17 02:55:46;;;;;;;12.80;6.85;;;;;;;1.70;76.59;96919.63;4992048;28;20126;-45
2022/01/17 02:58:14;;;;;;;12.07;6.60;;;;;;;1.62;76.78;96920.88;4992870;28;20093;-53
2022/01/17 03:00:41;;;;;;;13.20;7.45;;;;;;;1.87;76.19;96909.66;4982970;28;20046;-52
2022/01/17 03:03:13;;;;;;;12.70;6.97;;;;;;;1.69;77.04;96905.50;4987701;28;20499;-51
2022/01/17 03:05:40;;;;;;;10.98;6.45;;;;;;;1.85;76.44;96904.59;4990615;28;20577;-49
2022/01/17 03:08:07;;;;;;;12.82;6.60;;;;;;;1.79;76.66;96905.59;4992595;28;20047;-48
2022/01/17 03:10:40;;;;;;;10.57;6.28;;;;;;;1.79;76.64;96891.47;4990981;28;20052;-50
2022/01/17 03:13:11;;;;;;;10.43;6.57;;;;;;;1.68;76.74;96906.53;4992720;28;20046;-47
2022/01/17 03:15:40;;;;;;;11.50;5.97;;;;;;;1.53;76.94;96904.53;4991721;28;20129;-49
2022/01/17 03:18:07;;;;;;;12.70;6.75;;;;;;;1.49;77.26;96895.41;4990992;28;20542;-49
2022/01/17 03:20:37;;;;;;;11.32;6.38;;;;;;;1.80;76.92;96909.06;4977812;28;20070;-51
2022/01/17 03:23:05;;;;;;;12.20;6.72;;;;;;;1.63;76.69;96909.16;4984724;28;20101;-51
2022/01/17 03:25:33;;;;;;;12.18;6.93;;;;;;;1.55;77.27;96906.94;4991107;28;20161;-50
2022/01/17 03:28:00;;;;;;;12.02;6.25;;;;;;;1.47;77.41;96918.06;4992096;28;20627;-49
2022/01/17 03:30:30;;;;;;;12.23;6.47;;;;;;;1.54;77.23;96922.13;4988466;28;20415;-52
2022/01/17 03:32:57;;;;;;;12.02;7.05;;;;;;;1.55;77.14;96917.59;4984599;28;20038;-52
2022/01/17 03:35:23;;;;;;;12.32;6.90;;;;;;;1.50;77.26;96926.38;4991780;28;20042;-50
2022/01/17 03:37:50;;;;;;;10.68;6.28;;;;;;;1.48;77.22;96917.78;4991403;28;20038;-51
2022/01/17 03:40:17;;;;;;;13.80;6.72;;;;;;;1.47;77.77;96926.06;4986429;28;20393;-46
2022/01/17 03:42:44;;;;;;;11.55;6.97;;;;;;;1.42;77.22;96921.47;4992340;28;20089;-47
2022/01/17 03:45:12;;;;;;;15.10;8.00;;;;;;;1.54;77.59;96940.81;4991581;28;20057;-49
2022/01/17 03:47:43;;;;;;;12.55;7.18;;;;;;;1.40;78.17;96937.72;4991711;28;20054;-52
2022/01/17 03:50:13;;;;;;;11.52;6.70;;;;;;;1.56;77.87;96909.38;4989385;28;20053;-49
2022/01/17 03:52:40;;;;;;;12.60;6.63;;;;;;;1.62;77.23;96903.00;4990482;28;20121;-47
2022/01/17 03:55:14;;;;;;;13.35;7.72;;;;;;;1.68;77.78;96890.53;4991069;28;20400;-45
2022/01/17 03:57:43;;;;;;;14.48;7.32;;;;;;;1.60;78.21;96883.00;4991576;28;20043;-44
2022/01/17 04:00:30;;;;;;;13.88;6.45;;;;;;;1.39;79.82;96863.28;4991859;28;20057;-48
2022/01/17 04:02:57;;;;;;;;;;;;;;;1.47;80.00;96870.84;4989890;28;20128;-45
2022/01/17 04:05:25;;;;;;;12.75;7.10;;;;;;;1.62;79.47;96884.31;4991633;28;20390;-46
2022/01/17 04:07:52;;;;;;;12.45;7.80;;;;;;;1.52;80.25;96910.91;4991692;28;20044;-44
2022/01/17 04:10:19;;;;;;;12.60;7.07;;;;;;;1.57;80.21;96910.97;4986135;28;20129;-48
2022/01/17 04:12:47;;;;;;;13.82;7.60;;;;;;;1.63;79.90;96907.31;4991881;28;20078;-44
2022/01/17 04:15:14;;;;;;;13.02;7.45;;;;;;;1.47;80.95;96916.19;4992813;28;20054;-47
2022/01/17 04:17:43;;;;;;;12.98;7.05;;;;;;;1.44;81.12;96911.34;4991035;28;20073;-46
2022/01/17 04:20:16;;;;;;;13.23;7.60;;;;;;;1.67;80.12;96922.81;4987487;28;20073;-48
2022/01/17 04:22:49;;;;;;;11.68;7.43;;;;;;;1.61;80.48;96930.75;4990874;28;20042;-47
2022/01/17 04:25:16;;;;;;;10.95;6.55;;;;;;;1.42;81.52;96924.13;4991077;28;20137;-48
2022/01/17 04:27:44;;;;;;;14.77;7.30;;;;;;;1.59;80.67;96938.22;4991187;28;20419;-46
2022/01/17 04:30:13;;;;;;;13.20;7.40;;;;;;;1.60;80.82;96947.00;4991044;28;20141;-51
2022/01/17 04:32:41;;;;;;;11.75;7.18;;;;;;;1.43;81.38;96931.09;4982186;28;20496;-46
2022/01/17 04:35:10;;;;;;;13.40;7.40;;;;;;;1.53;81.60;96946.41;4991271;28;20050;-44
2022/01/17 04:37:38;;;;;;;12.48;7.55;;;;;;;1.60;80.96;96939.81;4991138;28;20046;-49
2022/01/17 04:40:05;;;;;;;11.88;6.32;;;;;;;1.46;82.22;96929.75;4990889;28;20045;-48
2022/01/17 04:42:33;;;;;;;11.93;6.82;;;;;;;1.29;82.88;96929.84;4981444;28;20407;-49
2022/01/17 04:45:11;;;;;;;12.70;7.20;;;;;;;1.48;81.96;96944.47;4990909;28;20137;-49
2022/01/17 04:47:40;;;;;;;12.25;7.32;;;;;;;1.59;81.41;96958.72;4989818;28;20046;-48
2022/01/17 04:50:09;;;;;;;11.70;7.43;;;;;;;1.63;80.99;96955.31;4983465;28;20047;-48
2022/01/17 04:52:37;;;;;;;13.70;7.72;;;;;;;1.34;82.73;96967.25;4983675;28;20050;-48
2022/01/17 04:55:06;;;;;;;11.00;6.93;;;;;;;1.64;81.43;96975.59;4991007;28;20137;-48
2022/01/17 04:57:33;;;;;;;13.02;7.07;;;;;;;1.68;81.10;96977.75;4990819;28;20050;-49
2022/01/17 05:00:01;;;;;;;14.85;7.20;;;;;;;1.68;80.97;96993.78;4986518;28;20133;-49
2022/01/17 05:02:28;;;;;;;13.13;7.28;;;;;;;1.43;82.36;96989.75;4992186;28;20069;-46
2022/01/17 05:04:55;;;;;;;11.95;7.10;;;;;;;1.38;81.77;96961.16;4994176;28;20047;-50
2022/01/17 05:07:21;;;;;;;11.57;7.20;;;;;;;1.62;81.74;96956.34;4991926;28;20097;-48
2022/01/17 05:09:48;;;;;;;11.43;6.78;;;;;;;1.44;82.48;96951.34;4986618;28;20052;-48
2022/01/17 05:12:16;;;;;;;11.93;6.70;;;;;;;1.71;81.27;96942.59;4994853;28;20049;-45
2022/01/17 05:14:47;;;;;;;14.52;7.60;;;;;;;1.78;81.02;96943.19;4994704;28;20050;-47
2022/01/17 05:19:54;;;;;;;12.48;7.18;;;;;;;1.62;82.03;96936.88;4993936;28;20054;-45
2022/01/17 05:22:22;;;;;;;14.07;6.90;;;;;;;1.60;81.65;96937.16;4990949;28;20046;-47
2022/01/17 05:24:50;;;;;;;13.10;6.60;;;;;;;1.56;82.43;96936.03;4994133;28;20050;-49
2022/01/17 05:27:16;;;;;;;11.77;6.47;;;;;;;1.48;82.28;96939.13;4993479;28;20455;-48
2022/01/17 05:29:44;;;;;;;10.80;6.28;;;;;;;1.57;81.62;96942.97;5005847;23;20586;-44
2022/01/17 05:32:11;;;;;;;12.50;7.13;;;;;;;1.68;81.37;96956.41;4993715;28;20146;-44
2022/01/17 05:34:40;;;;;;;12.23;6.90;;;;;;;1.71;81.19;96940.72;4994009;28;20050;-46
2022/01/17 05:37:09;;;;;;;10.95;7.03;;;;;;;1.85;80.62;96943.78;4991106;28;20046;-44
2022/01/17 05:39:37;;;;;;;12.60;7.07;;;;;;;1.77;80.79;96947.72;4989944;28;20069;-45
2022/01/17 05:42:05;;;;;;;12.00;6.53;;;;;;;1.88;80.50;96937.94;4994343;28;20043;-43
2022/01/17 05:44:32;;;;;;;12.05;6.53;;;;;;;1.87;80.18;96931.81;4992922;28;20121;-49
2022/01/17 05:47:00;;;;;;;11.32;6.22;;;;;;;1.81;80.82;96942.69;4983839;28;20045;-46
2022/01/17 05:49:27;;;;;;;11.27;6.40;;;;;;;1.58;81.41;96960.59;4992832;28;20916;-45
2022/01/17 05:51:53;;;;;;;13.07;7.18;;;;;;;1.83;80.26;96960.06;4990550;28;20049;-49
2022/01/17 05:54:20;;;;;;;9.10;6.03;;;;;;;1.78;80.83;96953.88;4984262;28;20038;-46
2022/01/17 05:56:50;;;;;;;11.75;5.85;;;;;;;1.99;79.93;96955.69;4992804;28;20464;-49
2022/01/17 05:59:17;;;;;;;11.50;6.70;;;;;;;1.89;80.67;96970.81;4993360;28;20049;-52
2022/01/17 06:01:44;;;;;;;12.02;6.78;;;;;;;1.71;81.23;96979.94;4990387;28;20415;-45
2022/01/17 06:04:11;;;;;;;10.43;5.95;;;;;;;2.02;80.06;96979.22;4994284;28;20471;-44
2022/01/17 06:06:38;;;;;;;10.35;6.18;;;;;;;1.90;79.73;96978.53;4993293;28;20053;-45
2022/01/17 06:09:06;;;;;;;11.25;6.28;;;;;;;1.83;80.69;96988.63;4993971;28;20486;-44
2022/01/17 06:11:34;;;;;;;12.23;6.80;;;;;;;2.08;79.25;96978.22;4990988;28;20047;-44
2022/01/17 06:14:01;;;;;;;11.00;6.53;;;;;;;2.23;78.68;96977.53;4992420;28;20141;-47
2022/01/17 06:16:30;;;;;;;11.63;6.22;;;;;;;2.26;78.59;96976.22;4993132;28;20042;-45
2022/01/17 06:18:57;;;;;;;10.88;6.40;;;;;;;2.14;79.00;96972.91;4984390;28;20074;-45
2022/01/17 06:21:24;;;;;;;12.73;7.53;;;;;;;1.90;80.04;96975.06;4993094;28;20038;-49
2022/01/17 06:23:52;;;;;;;11.07;6.35;;;;;;;1.93;80.01;96975.38;4992471;28;20056;-46
2022/01/17 06:26:20;;;;;;;10.27;5.80;;;;;;;1.86;79.97;96964.09;4991993;28;20042;-48
2022/01/17 06:28:47;;;;;;;10.82;6.38;;;;;;;2.08;79.46;96956.84;4993046;28;20050;-46
2022/01/17 06:31:14;;;;;;;10.85;6.18;;;;;;;2.03;79.68;96958.66;4987405;28;20054;-45
2022/01/17 06:33:41;;;;;;;11.02;6.03;;;;;;;2.02;80.14;96963.19;4992832;28;20057;-46
2022/01/17 06:36:08;;;;;;;11.82;6.53;;;;;;;2.01;79.61;96956.22;4992593;28;20066;-44
2022/01/17 06:38:34;;;;;;;13.10;6.63;;;;;;;1.89;80.22;96958.25;4993580;28;20042;-44
2022/01/17 06:41:01;;;;;;;10.40;6.13;;;;;;;1.93;80.16;96945.22;4981787;28;20448;-48
2022/01/17 06:43:28;;;;;;;11.05;6.13;;;;;;;2.12;79.25;96953.69;4988363;28;20062;-47
2022/01/17 06:45:55;;;;;;;9.73;6.10;;;;;;;2.04;79.64;96952.25;4993055;28;20641;-44
2022/01/17 06:48:25;;;;;;;11.13;5.97;;;;;;;2.03;79.64;96951.47;4993435;28;20046;-45
2022/01/17 06:50:52;;;;;;;11.30;6.05;;;;;;;1.99;79.82;96955.69;4982363;28;20049;-46
2022/01/17 06:53:19;;;;;;;10.45;6.10;;;;;;;2.16;79.16;96960.91;4978680;28;20050;-46
2022/01/17 06:55:46;;;;;;;10.48;5.80;;;;;;;2.07;79.28;96963.22;4992886;28;20558;-47
2022/01/17 06:58:13;;;;;;;10.52;6.00;;;;;;;2.16;79.30;96952.13;4992744;28;20514;-46
2022/01/17 07:00:39;;;;;;;10.20;6.28;;;;;;;2.03;79.58;96948.78;4993121;28;20424;-46
2022/01/17 07:03:07;;;;;;;9.68;6.22;;;;;;;2.03;80.24;96938.09;4990740;28;20097;-47
2022/01/17 07:05:34;;;;;;;10.40;5.95;;;;;;;1.91;80.24;96942.78;4992917;28;20042;-45
2022/01/17 07:08:01;;;;;;;10.45;5.90;;;;;;;2.03;80.29;96940.78;4993030;28;20046;-47
2022/01/17 07:10:28;;;;;;;10.82;5.72;;;;;;;1.90;80.87;96967.88;4983185;28;20050;-42
2022/01/17 07:12:56;;;;;;;10.35;6.43;;;;;;;2.08;80.00;96991.56;4993110;28;20077;-44
2022/01/17 07:15:23;;;;;;;9.55;5.78;;;;;;;2.08;80.14;96996.06;4992843;28;20046;-48
2022/01/17 07:17:50;;;;;;;9.95;5.88;;;;;;;2.24;79.14;96989.03;4993020;28;20045;-44
2022/01/17 07:20:17;;;;;;;10.38;5.78;;;;;;;2.26;79.23;97026.97;4983996;28;20405;-47
2022/01/17 07:22:44;;;;;;;11.77;6.13;;;;;;;2.28;79.48;97056.91;4981159;28;20039;-43
2022/01/17 07:25:11;;;;;;;11.32;5.28;;;;;;;2.35;79.90;97054.84;4992836;28;20137;-50
2022/01/17 07:27:40;;;;;;;11.65;6.47;;;;;;;2.40;79.58;97059.41;4992561;28;20066;-43
2022/01/17 07:30:09;;;;;;;10.52;5.95;;;;;;;2.31;79.71;97081.25;4992086;28;20054;-48
2022/01/17 07:32:37;;;;;;;11.35;6.78;;;;;;;2.39;80.08;97101.34;4973415;28;20135;-43
2022/01/17 07:35:06;;;;;;;9.38;5.25;;;;;;;2.46;79.44;97130.53;4973327;28;20051;-49
2022/01/17 07:37:33;;;;;;;12.43;6.03;;;;;;;2.39;79.60;97122.72;4989240;28;20048;-43
2022/01/17 07:40:01;;;;;;;11.75;5.60;;;;;;;2.45;79.45;97100.34;4991176;28;20053;-45
2022/01/17 07:42:28;;;;;;;9.70;5.82;;;;;;;2.47;79.35;97065.34;4973177;28;20126;-49
2022/01/17 07:44:57;;;;;;;10.27;5.78;;;;;;;2.51;79.34;97055.78;4973033;28;20133;-49
2022/01/17 07:50:24;;;;;;;11.15;5.82;;;;;;;2.37;80.50;97058.03;5004721;28;20060;-47
2022/01/17 07:52:52;;;;;;;9.52;5.97;;;;;;;2.42;79.84;97052.75;4973085;28;20428;-46
2022/01/17 07:55:21;;;;;;;10.13;5.93;;;;;;;2.37;79.85;97041.22;4972848;28;20074;-43
2022/01/17 07:57:48;;;;;;;12.38;5.80;;;;;;;2.40;80.20;97025.50;4989093;28;20043;-44
2022/01/17 08:00:22;;;;;;;8.63;5.63;;;;;;;2.37;80.31;97023.31;4983601;28;20055;-45
2022/01/17 08:02:50;;;;;;;11.82;5.88;;;;;;;2.44;80.06;97026.63;4971547;28;20055;-45
2022/01/17 08:05:18;;;;;;;11.52;6.28;;;;;;;2.42;80.33;97033.25;4972842;28;20046;-45
2022/01/17 08:07:45;;;;;;;8.68;5.32;;;;;;;2.23;81.26;97038.16;4972554;28;20455;-45
2022/01/17 08:10:13;;;;;;;10.63;5.63;;;;;;;2.30;81.53;97046.75;4979748;28;20042;-44
2022/01/17 08:12:42;;;;;;;9.57;5.65;;;;;;;2.47;80.82;97054.66;4991606;28;20137;-47
2022/01/17 08:15:11;;;;;;;9.00;5.30;;;;;;;2.31;82.02;97064.41;4990990;28;20054;-48
2022/01/17 08:17:38;;;;;;;9.38;5.57;;;;;;;2.33;81.99;97057.75;4975018;28;20043;-48
2022/01/17 08:20:06;;;;;;;8.50;5.47;;;;;;;2.26;83.32;97064.34;4976050;28;20064;-46
2022/01/17 08:22:33;;;;;;;8.77;5.35;;;;;;;2.31;83.17;97059.06;4990193;28;20050;-50
2022/01/17 08:25:00;;;;;;;9.20;5.97;;;;;;;2.47;82.12;97063.50;4993018;28;20137;-47
2022/01/17 08:27:27;;;;;;;9.52;5.93;;;;;;;2.39;82.68;97061.28;4990832;28;20129;-42
2022/01/17 08:29:55;;;;;;;10.73;6.32;;;;;;;2.49;82.33;97060.56;4992101;28;20038;-45
2022/01/17 08:32:42;;;;;;;10.80;6.03;;;;;;;2.25;83.91;97070.75;4979593;28;20412;-47
2022/01/17 08:35:09;;;;;;;10.27;5.63;;;;;;;2.29;83.69;97075.34;4972624;28;20050;-49
2022/01/17 08:37:36;;;;;;;9.90;6.45;;;;;;;2.57;82.15;97073.50;4973955;28;20535;-46
2022/01/17 08:40:06;;;;;;;11.30;6.53;;;;;;;2.49;82.98;97069.38;4976581;28;20104;-45
2022/01/17 08:42:36;;;;;;;12.05;6.25;;;;;;;2.41;83.30;97072.53;4994456;28;20042;-42
2022/01/17 08:45:07;;;;;;;11.50;6.78;;;;;;;2.43;83.36;97058.91;4996075;28;20046;-43
2022/01/17 08:47:34;;;;;;;10.20;6.30;;;;;;;2.40;83.60;97030.84;4995817;28;20133;-46
2022/01/17 08:50:03;;;;;;;12.10;6.15;;;;;;;2.27;84.36;97005.34;4976706;28;20043;-44
2022/01/17 08:52:30;;;;;;;11.05;6.18;;;;;;;2.53;83.32;97013.59;4982008;28;20061;-47
2022/01/17 08:54:57;;;;;;;11.73;6.65;;;;;;;2.44;84.04;97025.78;4976346;28;20077;-44
2022/01/17 08:57:25;;;;;;;11.23;6.50;;;;;;;2.43;84.24;97054.38;4976310;28;20047;-47
2022/01/17 08:59:52;;;;;;;9.80;5.72;;;;;;;2.39;84.50;97063.16;4975912;28;20100;-43
2022/01/17 09:02:19;;;;;;;10.13;5.63;;;;;;;2.51;83.86;97071.81;4976257;28;20050;-43
2022/01/17 09:04:47;;;;;;;9.43;6.72;;;;;;;2.66;83.01;97073.81;4979810;28;20043;-47
2022/01/17 09:07:15;;;;;;;10.43;6.70;;;;;;;2.70;82.88;97078.41;4995528;28;20453;-49
2022/01/17 09:09:45;;;;;;;13.68;7.32;;;;;;;2.59;83.27;97049.97;4990417;28;20038;-45
2022/01/17 09:12:13;;;;;;;10.70;6.20;;;;;;;2.45;84.24;97052.25;4976203;28;20079;-43
2022/01/17 09:14:40;;;;;;;11.02;5.93;;;;;;;2.63;83.78;97050.28;4975072;28;20061;-43
2022/01/17 09:17:08;;;;;;;9.27;5.80;;;;;;;2.77;83.18;97054.16;4989495;28;20050;-47
2022/01/17 09:19:37;;;;;;;11.77;6.85;;;;;;;2.85;82.87;97088.41;4980246;28;20040;-45
2022/01/17 09:22:06;;;;;;;11.27;6.45;;;;;;;2.96;82.26;97095.47;4990515;28;20057;-46
2022/01/17 09:24:35;;;;;;;11.88;6.32;;;;;;;2.99;81.94;97104.84;4980064;28;20039;-47
2022/01/17 09:27:03;;;;;;;10.68;6.18;;;;;;;3.25;81.07;97103.16;4995495;28;20038;-45
2022/01/17 09:29:31;;;;;;;10.15;6.40;;;;;;;3.07;81.46;97092.88;4994891;28;20432;-44
2022/01/17 09:31:59;;;;;;;10.55;5.95;;;;;;;3.19;81.43;97075.59;4985173;28;20081;-46
2022/01/17 09:34:26;;;;;;;9.32;5.70;;;;;;;3.36;80.29;97082.66;4975962;28;20046;-50
2022/01/17 09:36:53;;;;;;;11.18;5.90;;;;;;;3.23;80.83;97083.91;4958163;28;20046;-48
2022/01/17 09:39:20;;;;;;;9.88;6.15;;;;;;;3.25;81.24;97071.91;4990125;28;20046;-48
2022/01/17 09:41:47;;;;;;;10.10;6.50;;;;;;;3.19;80.96;97088.19;4993241;28;20076;-42
2022/01/17 09:44:15;;;;;;;11.02;5.93;;;;;;;3.12;81.34;97095.59;4994996;28;20077;-45
2022/01/17 09:46:45;;;;;;;9.23;5.78;;;;;;;3.34;80.25;97088.25;4994855;28;20050;-44
2022/01/17 09:49:20;;;;;;;11.48;6.50;;;;;;;3.38;80.14;97110.78;4988048;28;20122;-45
2022/01/17 09:54:31;;;;;;;11.63;6.55;;;;;;;3.27;80.32;97111.75;4975297;28;20050;-43
2022/01/17 09:57:01;;;;;;;8.90;5.20;;;;;;;3.30;80.31;97121.94;4974865;28;20126;-43
2022/01/17 09:59:30;;;;;;;11.88;5.88;;;;;;;3.62;78.85;97107.72;4975049;28;20049;-43
2022/01/17 10:01:56;;;;;;;10.48;6.65;;;;;;;3.80;78.54;97109.16;4986857;28;20046;-46
2022/01/17 10:04:24;;;;;;;9.55;5.65;;;;;;;3.64;78.63;97106.41;4994600;28;20052;-46
2022/01/17 10:06:55;;;;;;;9.77;5.70;;;;;;;3.45;79.30;97119.38;4994225;28;20504;-46
2022/01/17 10:09:25;;;;;;;9.77;5.75;;;;;;;3.66;79.20;97116.84;4991592;28;20042;-49
2022/01/17 10:12:15;;;;;;;8.55;5.45;;;;;;;3.49;79.54;97115.13;4974923;28;20050;-45
2022/01/17 10:14:56;;;;;;;11.13;5.72;;;;;;;3.60;79.05;97097.25;4980578;28;20101;-45
2022/01/17 10:17:40;;;;;;;10.18;5.32;;;;;;;3.61;79.57;97093.53;4994120;28;20467;-44
2022/01/17 10:20:09;;;;;;;11.18;5.60;;;;;;;3.71;78.06;97082.88;4984740;28;20039;-46
2022/01/17 10:22:47;;;;;;;8.68;5.20;;;;;;;3.68;78.36;97074.56;4974373;28;20058;-49
2022/01/17 10:25:37;;;;;;;9.38;5.47;;;;;;;3.65;78.44;97057.16;4974557;28;20045;-47
2022/01/17 10:31:18;;;;;;;8.85;5.05;;;;;;;3.71;77.81;97082.09;4993793;28;20077;-47
2022/01/17 10:36:42;;;;;;;8.40;5.05;;;;;;;3.66;78.09;97069.47;4973999;28;20133;-47
2022/01/17 10:39:09;;;;;;;8.82;5.32;;;;;;;3.72;77.72;97064.94;4981906;28;20133;-45
2022/01/17 10:41:37;;;;;;;9.00;5.28;;;;;;;3.72;77.61;97072.97;4975398;28;20129;-43
2022/01/17 10:44:04;;;;;;;9.88;5.10;;;;;;;3.60;78.31;97075.84;4974860;28;20077;-45
2022/01/17 10:46:32;;;;;;;11.05;5.65;;;;;;;3.82;77.64;97083.72;4975213;28;20093;-44
2022/01/17 10:49:18;;;;;;;8.77;5.50;;;;;;;3.78;77.56;97077.28;4979995;28;20488;-44
2022/01/17 10:51:45;;;;;;;8.98;5.65;;;;;;;3.78;77.79;97081.84;4991527;28;20049;-44
2022/01/17 10:54:17;;;;;;;10.93;6.72;;;;;;;3.72;77.79;97089.03;4974434;28;20047;-48
2022/01/17 10:56:56;;;;;;;9.23;4.82;;;;;;;3.81;77.71;97086.69;4974002;28;20049;-45
2022/01/17 10:59:28;;;;;;;8.63;4.97;;;;;;;3.79;77.25;97094.16;4978107;28;20454;-43
2022/01/17 11:01:55;;;;;;;8.88;4.47;;;;;;;3.61;77.82;97085.50;4985557;28;20416;-42
2022/01/17 11:04:36;;;;;;;9.27;5.72;;;;;;;3.99;76.75;97084.34;4973938;28;20053;-44
2022/01/17 11:07:05;;;;;;;8.13;4.40;;;;;;;3.66;77.71;97079.38;4973946;28;20105;-45
2022/01/17 11:09:44;;;;;;;7.57;4.40;;;;;;;3.79;77.15;97078.91;4976064;28;20134;-44
2022/01/17 11:12:16;;;;;;;8.32;4.65;;;;;;;3.95;76.40;97077.91;4993186;28;20224;-49
2022/01/17 11:14:45;;;;;;;9.45;4.95;;;;;;;4.07;76.31;97092.97;4993061;28;20073;-42
2022/01/17 11:17:32;;;;;;;8.10;5.05;;;;;;;3.86;76.24;97074.09;4984553;28;20065;-49
2022/01/17 11:20:05;;;;;;;8.93;4.85;;;;;;;3.93;76.42;97096.13;4989815;28;20050;-45
2022/01/17 11:22:40;;;;;;;7.25;4.45;;;;;;;3.93;76.45;97093.44;4984888;28;20059;-44
2022/01/17 11:25:13;;;;;;;8.45;5.00;;;;;;;3.89;76.33;97084.28;4978599;28;20052;-48
2022/01/17 11:27:40;;;;;;;;;;;;;;;3.79;77.01;97084.25;4993338;28;20053;-46
2022/01/17 11:30:08;;;;;;;8.50;4.80;;;;;;;3.99;75.95;97084.34;5000572;23;19928;-50
2022/01/17 11:32:36;;;;;;;8.43;4.75;;;;;;;3.98;76.03;97084.63;4992755;28;20082;-45
2022/01/17 11:35:04;;;;;;;8.82;4.95;;;;;;;3.91;76.30;97092.88;4992313;28;20042;-46
2022/01/17 11:37:41;;;;;;;6.95;4.57;;;;;;;3.89;76.50;97065.56;4991533;28;20530;-44
2022/01/17 11:40:12;;;;;;;7.28;4.40;;;;;;;4.08;75.92;97071.25;4983518;28;20045;-45
2022/01/17 11:42:50;;;;;;;7.55;5.22;;;;;;;4.17;75.69;97058.16;4992219;28;20046;-44
2022/01/17 11:45:23;;;;;;;9.30;4.40;;;;;;;4.12;75.83;97075.00;4992422;28;20046;-46
2022/01/17 11:47:57;;;;;;;9.75;5.13;;;;;;;4.22;75.16;97055.50;4981650;28;20051;-47
2022/01/17 11:50:31;;;;;;;7.22;4.35;;;;;;;4.21;74.59;97053.88;4978054;28;20422;-49
2022/01/17 11:52:58;;;;;;;6.38;3.60;;;;;;;3.90;75.69;97056.47;4986782;28;20142;-49
2022/01/17 11:55:43;;;;;;;9.30;5.15;;;;;;;4.26;75.11;97075.34;4976635;28;20060;-47
2022/01/17 11:58:31;;;;;;;9.88;4.60;;;;;;;4.27;75.21;97085.00;4991864;28;20146;-47
2022/01/17 12:00:58;;;;;;;6.80;4.05;;;;;;;4.28;74.65;97083.09;4989627;28;20046;-50
2022/01/17 12:03:37;;;;;;;8.80;4.22;;;;;;;4.15;75.19;97079.03;4992332;28;20094;-49
2022/01/17 12:06:18;;;;;;;8.45;4.47;;;;;;;4.48;74.10;97069.75;4991224;28;20052;-49
2022/01/17 12:08:46;;;;;;;7.00;4.45;;;;;;;4.50;73.79;97074.88;4989612;28;20129;-44
2022/01/17 12:11:29;;;;;;;6.95;4.20;;;;;;;4.39;73.83;97096.28;4985908;28;20137;-49